sensor_id;sensor_type;location;lat;lon;timestamp;pressure;altitude;pressure_sealevel;temperature;humidity
32875;BME280;40468;42.128;24.750;2022-10-31T00:01:20;99907.41;;;16.45;44.17
32875;BME280;40468;42.128;24.750;2022-10-31T00:02:52;99921.50;;;16.57;44.23
32875;BME280;40468;42.128;24.750;2022-10-31T00:04:24;99916.13;;;16.58;44.27
32875;BME280;40468;42.128;24.750;2022-10-31T00:05:56;99919.28;;;16.64;44.13
32875;BME280;40468;42.128;24.750;2022-10-31T00:07:29;99916.53;;;16.65;44.16
32875;BME280;40468;42.128;24.750;2022-10-31T00:09:03;99918.03;;;16.69;44.09
32875;BME280;40468;42.128;24.750;2022-10-31T00:10:37;99919.47;;;16.73;44.18
32875;BME280;40468;42.128;24.750;2022-10-31T00:12:09;99899.69;;;16.68;44.00
32875;BME280;40468;42.128;24.750;2022-10-31T00:13:41;99912.91;;;16.80;43.74
32875;BME280;40468;42.128;24.750;2022-10-31T00:15:13;99920.38;;;16.87;43.69
32875;BME280;40468;42.128;24.750;2022-10-31T00:16:44;99921.94;;;16.89;43.67
32875;BME280;40468;42.128;24.750;2022-10-31T00:18:16;99910.34;;;16.92;43.56
32875;BME280;40468;42.128;24.750;2022-10-31T00:19:47;99913.72;;;16.94;43.62
32875;BME280;40468;42.128;24.750;2022-10-31T00:21:20;99910.03;;;16.96;43.72
32875;BME280;40468;42.128;24.750;2022-10-31T00:22:52;99915.06;;;16.99;43.44
32875;BME280;40468;42.128;24.750;2022-10-31T00:24:24;99904.69;;;16.98;43.59
32875;BME280;40468;42.128;24.750;2022-10-31T00:26:00;99913.19;;;17.01;43.69
32875;BME280;40468;42.128;24.750;2022-10-31T00:27:32;99915.47;;;17.06;43.71
32875;BME280;40468;42.128;24.750;2022-10-31T00:29:04;99906.66;;;17.07;43.59
32875;BME280;40468;42.128;24.750;2022-10-31T00:30:35;99914.00;;;17.15;43.35
32875;BME280;40468;42.128;24.750;2022-10-31T00:32:06;99914.97;;;17.14;43.48
32875;BME280;40468;42.128;24.750;2022-10-31T00:33:39;99917.16;;;17.20;43.16
32875;BME280;40468;42.128;24.750;2022-10-31T00:35:10;99924.09;;;17.21;43.17
32875;BME280;40468;42.128;24.750;2022-10-31T00:36:42;99920.41;;;17.23;43.32
32875;BME280;40468;42.128;24.750;2022-10-31T00:38:15;99919.03;;;17.31;43.04
32875;BME280;40468;42.128;24.750;2022-10-31T00:39:47;99919.88;;;17.31;43.14
32875;BME280;40468;42.128;24.750;2022-10-31T00:41:20;99919.75;;;17.33;43.04
32875;BME280;40468;42.128;24.750;2022-10-31T00:42:51;99922.28;;;17.34;43.05
32875;BME280;40468;42.128;24.750;2022-10-31T00:44:22;99922.16;;;17.36;43.12
32875;BME280;40468;42.128;24.750;2022-10-31T00:45:54;99926.28;;;17.40;42.92
32875;BME280;40468;42.128;24.750;2022-10-31T00:47:26;99924.25;;;17.43;42.98
32875;BME280;40468;42.128;24.750;2022-10-31T00:48:58;99928.47;;;17.46;42.90
32875;BME280;40468;42.128;24.750;2022-10-31T00:50:29;99923.81;;;17.49;42.67
32875;BME280;40468;42.128;24.750;2022-10-31T00:52:01;99919.50;;;17.48;42.85
32875;BME280;40468;42.128;24.750;2022-10-31T00:53:35;99916.66;;;17.51;42.92
32875;BME280;40468;42.128;24.750;2022-10-31T00:55:07;99917.25;;;17.55;42.69
32875;BME280;40468;42.128;24.750;2022-10-31T00:56:38;99909.13;;;17.58;42.73
32875;BME280;40468;42.128;24.750;2022-10-31T00:58:10;99912.59;;;17.59;42.99
32875;BME280;40468;42.128;24.750;2022-10-31T00:59:41;99905.66;;;17.58;42.70
32875;BME280;40468;42.128;24.750;2022-10-31T01:01:13;99912.91;;;17.67;42.92
32875;BME280;40468;42.128;24.750;2022-10-31T01:02:45;99915.53;;;17.67;42.91
32875;BME280;40468;42.128;24.750;2022-10-31T01:04:17;99910.03;;;17.70;42.84
32875;BME280;40468;42.128;24.750;2022-10-31T01:05:57;99911.19;;;17.79;42.61
32875;BME280;40468;42.128;24.750;2022-10-31T01:07:28;99904.75;;;17.83;42.62
32875;BME280;40468;42.128;24.750;2022-10-31T01:09:02;99909.78;;;17.86;42.50
32875;BME280;40468;42.128;24.750;2022-10-31T01:10:34;99909.56;;;17.89;42.24
32875;BME280;40468;42.128;24.750;2022-10-31T01:12:05;99905.75;;;17.93;42.33
32875;BME280;40468;42.128;24.750;2022-10-31T01:13:37;99899.66;;;17.92;42.47
32875;BME280;40468;42.128;24.750;2022-10-31T01:15:10;99874.94;;;17.82;42.23
32875;BME280;40468;42.128;24.750;2022-10-31T01:16:41;99900.72;;;18.01;42.02
32875;BME280;40468;42.128;24.750;2022-10-31T01:18:13;99902.06;;;18.07;42.07
32875;BME280;40468;42.128;24.750;2022-10-31T01:19:45;99906.03;;;18.12;41.99
32875;BME280;40468;42.128;24.750;2022-10-31T01:21:18;99907.53;;;18.16;41.88
32875;BME280;40468;42.128;24.750;2022-10-31T01:22:49;99908.13;;;18.20;41.89
32875;BME280;40468;42.128;24.750;2022-10-31T01:24:22;99905.34;;;18.22;41.74
32875;BME280;40468;42.128;24.750;2022-10-31T01:26:04;99910.84;;;18.18;41.83
32875;BME280;40468;42.128;24.750;2022-10-31T01:27:35;99901.28;;;18.17;41.68
32875;BME280;40468;42.128;24.750;2022-10-31T01:29:08;99904.28;;;18.24;41.73
32875;BME280;40468;42.128;24.750;2022-10-31T01:30:40;99898.91;;;18.26;41.62
32875;BME280;40468;42.128;24.750;2022-10-31T01:32:11;99885.97;;;18.23;41.44
32875;BME280;40468;42.128;24.750;2022-10-31T01:33:42;99894.84;;;18.33;41.37
32875;BME280;40468;42.128;24.750;2022-10-31T01:35:14;99894.75;;;18.34;41.38
32875;BME280;40468;42.128;24.750;2022-10-31T01:36:46;99888.63;;;18.34;41.39
32875;BME280;40468;42.128;24.750;2022-10-31T01:38:21;99890.91;;;18.38;41.08
32875;BME280;40468;42.128;24.750;2022-10-31T01:39:55;99887.31;;;18.39;41.46
32875;BME280;40468;42.128;24.750;2022-10-31T01:41:28;99895.22;;;18.39;41.29
32875;BME280;40468;42.128;24.750;2022-10-31T01:43:01;99896.69;;;18.44;41.05
32875;BME280;40468;42.128;24.750;2022-10-31T01:44:53;99896.22;;;18.50;41.20
32875;BME280;40468;42.128;24.750;2022-10-31T01:46:27;99893.66;;;18.48;41.05
32875;BME280;40468;42.128;24.750;2022-10-31T01:48:00;99902.22;;;18.52;41.13
32875;BME280;40468;42.128;24.750;2022-10-31T01:49:35;99892.13;;;18.57;40.84
32875;BME280;40468;42.128;24.750;2022-10-31T01:51:10;99901.84;;;18.56;41.01
32875;BME280;40468;42.128;24.750;2022-10-31T01:52:45;99895.50;;;18.59;40.97
32875;BME280;40468;42.128;24.750;2022-10-31T01:54:21;99896.47;;;18.58;40.92
32875;BME280;40468;42.128;24.750;2022-10-31T01:55:56;99898.13;;;18.59;40.98
32875;BME280;40468;42.128;24.750;2022-10-31T01:57:29;99906.53;;;18.64;40.76
32875;BME280;40468;42.128;24.750;2022-10-31T01:59:05;99913.25;;;18.68;40.81
32875;BME280;40468;42.128;24.750;2022-10-31T02:00:39;99906.16;;;18.69;40.68
32875;BME280;40468;42.128;24.750;2022-10-31T02:02:12;99895.63;;;18.69;40.53
32875;BME280;40468;42.128;24.750;2022-10-31T02:03:45;99903.28;;;18.72;40.50
32875;BME280;40468;42.128;24.750;2022-10-31T02:05:21;99898.53;;;18.77;40.41
32875;BME280;40468;42.128;24.750;2022-10-31T02:06:56;99893.16;;;18.78;40.34
32875;BME280;40468;42.128;24.750;2022-10-31T02:08:31;99898.44;;;18.78;40.31
32875;BME280;40468;42.128;24.750;2022-10-31T02:10:04;99889.78;;;18.76;40.44
32875;BME280;40468;42.128;24.750;2022-10-31T02:11:37;99890.63;;;18.77;40.50
32875;BME280;40468;42.128;24.750;2022-10-31T02:13:09;99889.66;;;18.78;40.28
32875;BME280;40468;42.128;24.750;2022-10-31T02:14:40;99886.06;;;18.79;40.34
32875;BME280;40468;42.128;24.750;2022-10-31T02:16:12;99886.53;;;18.84;40.24
32875;BME280;40468;42.128;24.750;2022-10-31T02:17:44;99885.47;;;18.86;40.12
32875;BME280;40468;42.128;24.750;2022-10-31T02:19:21;99882.59;;;18.90;40.14
32875;BME280;40468;42.128;24.750;2022-10-31T02:21:03;99873.84;;;18.89;40.09
32875;BME280;40468;42.128;24.750;2022-10-31T02:22:44;99871.19;;;18.89;39.93
32875;BME280;40468;42.128;24.750;2022-10-31T02:24:43;99854.88;;;18.84;40.02
32875;BME280;40468;42.128;24.750;2022-10-31T02:28:35;99875.16;;;18.83;40.09
32875;BME280;40468;42.128;24.750;2022-10-31T02:30:16;99869.63;;;18.86;39.97
32875;BME280;40468;42.128;24.750;2022-10-31T02:31:56;99873.47;;;18.82;40.07
32875;BME280;40468;42.128;24.750;2022-10-31T02:33:35;99871.56;;;18.84;40.05
32875;BME280;40468;42.128;24.750;2022-10-31T02:35:20;99870.72;;;18.84;40.11
32875;BME280;40468;42.128;24.750;2022-10-31T02:36:58;99874.66;;;18.90;39.98
32875;BME280;40468;42.128;24.750;2022-10-31T02:38:43;99871.09;;;18.91;39.95
32875;BME280;40468;42.128;24.750;2022-10-31T02:40:23;99876.38;;;18.91;39.92
32875;BME280;40468;42.128;24.750;2022-10-31T02:42:02;99857.88;;;18.79;39.93
32875;BME280;40468;42.128;24.750;2022-10-31T02:43:42;99878.50;;;18.97;39.89
32875;BME280;40468;42.128;24.750;2022-10-31T02:45:21;99865.66;;;18.92;39.83
32875;BME280;40468;42.128;24.750;2022-10-31T02:46:59;99884.16;;;19.03;39.80
32875;BME280;40468;42.128;24.750;2022-10-31T02:48:33;99889.31;;;19.05;39.73
32875;BME280;40468;42.128;24.750;2022-10-31T02:50:11;99879.69;;;19.04;39.62
32875;BME280;40468;42.128;24.750;2022-10-31T02:51:44;99891.09;;;19.04;39.71
32875;BME280;40468;42.128;24.750;2022-10-31T02:53:16;99892.41;;;19.10;39.66
32875;BME280;40468;42.128;24.750;2022-10-31T02:54:48;99891.09;;;19.16;39.49
32875;BME280;40468;42.128;24.750;2022-10-31T02:56:20;99904.88;;;19.19;39.43
32875;BME280;40468;42.128;24.750;2022-10-31T02:57:54;99909.06;;;19.22;39.45
32875;BME280;40468;42.128;24.750;2022-10-31T02:59:29;99909.22;;;19.20;39.48
32875;BME280;40468;42.128;24.750;2022-10-31T03:01:31;99895.44;;;19.17;39.64
32875;BME280;40468;42.128;24.750;2022-10-31T03:03:12;99899.84;;;19.16;39.44
32875;BME280;40468;42.128;24.750;2022-10-31T03:05:11;99905.50;;;19.23;39.26
32875;BME280;40468;42.128;24.750;2022-10-31T03:06:49;99898.66;;;19.20;39.54
32875;BME280;40468;42.128;24.750;2022-10-31T03:08:29;99903.69;;;19.23;39.63
32875;BME280;40468;42.128;24.750;2022-10-31T03:10:11;99901.88;;;19.24;39.44
32875;BME280;40468;42.128;24.750;2022-10-31T03:11:53;99912.06;;;19.28;39.45
32875;BME280;40468;42.128;24.750;2022-10-31T03:13:34;99910.97;;;19.31;39.38
32875;BME280;40468;42.128;24.750;2022-10-31T03:15:12;99897.91;;;19.29;39.22
32875;BME280;40468;42.128;24.750;2022-10-31T03:16:47;99906.31;;;19.35;39.20
32875;BME280;40468;42.128;24.750;2022-10-31T03:18:25;99913.59;;;19.42;39.05
32875;BME280;40468;42.128;24.750;2022-10-31T03:20:00;99917.09;;;19.43;39.19
32875;BME280;40468;42.128;24.750;2022-10-31T03:21:36;99925.00;;;19.43;39.28
32875;BME280;40468;42.128;24.750;2022-10-31T03:23:14;99916.13;;;19.44;39.22
32875;BME280;40468;42.128;24.750;2022-10-31T03:24:47;99928.50;;;19.43;39.14
32875;BME280;40468;42.128;24.750;2022-10-31T03:26:21;99923.69;;;19.48;39.06
32875;BME280;40468;42.128;24.750;2022-10-31T03:27:54;99927.88;;;19.51;39.00
32875;BME280;40468;42.128;24.750;2022-10-31T03:29:28;99929.53;;;19.52;38.88
32875;BME280;40468;42.128;24.750;2022-10-31T03:31:03;99941.56;;;19.56;38.98
32875;BME280;40468;42.128;24.750;2022-10-31T03:32:38;99921.78;;;19.39;38.83
32875;BME280;40468;42.128;24.750;2022-10-31T03:34:15;99944.94;;;19.58;38.90
32875;BME280;40468;42.128;24.750;2022-10-31T03:35:50;99942.28;;;19.58;38.87
32875;BME280;40468;42.128;24.750;2022-10-31T03:37:28;99942.50;;;19.55;38.86
32875;BME280;40468;42.128;24.750;2022-10-31T03:39:04;99953.06;;;19.55;38.79
32875;BME280;40468;42.128;24.750;2022-10-31T03:40:38;99953.78;;;19.57;38.72
32875;BME280;40468;42.128;24.750;2022-10-31T03:42:15;99948.75;;;19.54;38.84
32875;BME280;40468;42.128;24.750;2022-10-31T03:43:52;99954.53;;;19.59;38.83
32875;BME280;40468;42.128;24.750;2022-10-31T03:45:30;99953.78;;;19.57;38.84
32875;BME280;40468;42.128;24.750;2022-10-31T03:47:02;99956.19;;;19.60;38.91
32875;BME280;40468;42.128;24.750;2022-10-31T03:48:34;99957.91;;;19.61;38.72
32875;BME280;40468;42.128;24.750;2022-10-31T03:50:09;99943.47;;;19.54;38.89
32875;BME280;40468;42.128;24.750;2022-10-31T03:51:44;99950.91;;;19.60;38.63
32875;BME280;40468;42.128;24.750;2022-10-31T03:53:20;99958.84;;;19.60;38.93
32875;BME280;40468;42.128;24.750;2022-10-31T03:54:57;99963.28;;;19.60;38.73
32875;BME280;40468;42.128;24.750;2022-10-31T03:56:35;99965.94;;;19.60;38.83
32875;BME280;40468;42.128;24.750;2022-10-31T03:58:10;99969.41;;;19.60;38.79
32875;BME280;40468;42.128;24.750;2022-10-31T03:59:46;99973.00;;;19.59;38.86
32875;BME280;40468;42.128;24.750;2022-10-31T04:01:21;99965.19;;;19.58;38.92
32875;BME280;40468;42.128;24.750;2022-10-31T04:02:57;99962.34;;;19.49;38.88
32875;BME280;40468;42.128;24.750;2022-10-31T04:04:29;99967.50;;;19.51;38.99
32875;BME280;40468;42.128;24.750;2022-10-31T04:06:06;99968.47;;;19.50;38.95
32875;BME280;40468;42.128;24.750;2022-10-31T04:07:42;99963.69;;;19.44;39.17
32875;BME280;40468;42.128;24.750;2022-10-31T04:09:17;99967.16;;;19.44;39.06
32875;BME280;40468;42.128;24.750;2022-10-31T04:10:51;99968.13;;;19.43;39.07
32875;BME280;40468;42.128;24.750;2022-10-31T04:12:24;99962.13;;;19.41;39.35
32875;BME280;40468;42.128;24.750;2022-10-31T04:13:57;99967.63;;;19.38;39.19
32875;BME280;40468;42.128;24.750;2022-10-31T04:15:35;99963.44;;;19.36;38.90
32875;BME280;40468;42.128;24.750;2022-10-31T04:17:10;99967.16;;;19.33;39.26
32875;BME280;40468;42.128;24.750;2022-10-31T04:18:43;99955.03;;;19.19;39.24
32875;BME280;40468;42.128;24.750;2022-10-31T04:20:15;99978.31;;;19.25;39.51
32875;BME280;40468;42.128;24.750;2022-10-31T04:21:49;99982.75;;;19.25;39.51
32875;BME280;40468;42.128;24.750;2022-10-31T04:23:24;99976.88;;;19.21;39.55
32875;BME280;40468;42.128;24.750;2022-10-31T04:24:56;99978.78;;;19.19;39.44
32875;BME280;40468;42.128;24.750;2022-10-31T04:26:27;99975.31;;;19.19;39.50
32875;BME280;40468;42.128;24.750;2022-10-31T04:27:59;99981.56;;;19.18;39.48
32875;BME280;40468;42.128;24.750;2022-10-31T04:29:30;99973.78;;;19.05;39.63
32875;BME280;40468;42.128;24.750;2022-10-31T04:31:02;99981.06;;;19.13;39.50
32875;BME280;40468;42.128;24.750;2022-10-31T04:32:34;99986.84;;;19.06;39.68
32875;BME280;40468;42.128;24.750;2022-10-31T04:34:06;99979.16;;;19.03;39.94
32875;BME280;40468;42.128;24.750;2022-10-31T04:35:38;99983.09;;;18.98;39.95
32875;BME280;40468;42.128;24.750;2022-10-31T04:37:11;99978.19;;;18.93;40.23
32875;BME280;40468;42.128;24.750;2022-10-31T04:38:42;99977.81;;;18.86;40.16
32875;BME280;40468;42.128;24.750;2022-10-31T04:40:13;99972.41;;;18.77;40.40
32875;BME280;40468;42.128;24.750;2022-10-31T04:41:45;99991.38;;;18.82;40.37
32875;BME280;40468;42.128;24.750;2022-10-31T04:43:17;99987.28;;;18.78;40.57
32875;BME280;40468;42.128;24.750;2022-10-31T04:44:49;99992.44;;;18.79;40.43
32875;BME280;40468;42.128;24.750;2022-10-31T04:46:21;99989.69;;;18.81;40.20
32875;BME280;40468;42.128;24.750;2022-10-31T04:47:51;99984.88;;;18.75;40.41
32875;BME280;40468;42.128;24.750;2022-10-31T04:49:23;99997.59;;;18.81;40.42
32875;BME280;40468;42.128;24.750;2022-10-31T04:50:58;100004.44;;;18.83;40.25
32875;BME280;40468;42.128;24.750;2022-10-31T04:52:32;100004.56;;;18.82;40.31
32875;BME280;40468;42.128;24.750;2022-10-31T04:54:04;100014.16;;;18.83;40.39
32875;BME280;40468;42.128;24.750;2022-10-31T04:55:36;99993.81;;;18.72;40.26
32875;BME280;40468;42.128;24.750;2022-10-31T04:57:07;100015.97;;;18.82;40.17
32875;BME280;40468;42.128;24.750;2022-10-31T04:58:39;100017.63;;;18.83;40.41
32875;BME280;40468;42.128;24.750;2022-10-31T05:00:12;100007.97;;;18.71;40.34
32875;BME280;40468;42.128;24.750;2022-10-31T05:01:44;100028.31;;;18.82;40.36
32875;BME280;40468;42.128;24.750;2022-10-31T05:03:16;100025.91;;;18.79;40.43
32875;BME280;40468;42.128;24.750;2022-10-31T05:04:47;100028.53;;;18.79;40.62
32875;BME280;40468;42.128;24.750;2022-10-31T05:06:18;100020.88;;;18.76;40.59
32875;BME280;40468;42.128;24.750;2022-10-31T05:07:52;100022.78;;;18.74;40.50
32875;BME280;40468;42.128;24.750;2022-10-31T05:09:24;100024.56;;;18.73;40.66
32875;BME280;40468;42.128;24.750;2022-10-31T05:10:59;100027.81;;;18.77;40.73
32875;BME280;40468;42.128;24.750;2022-10-31T05:12:31;100032.34;;;18.75;40.50
32875;BME280;40468;42.128;24.750;2022-10-31T05:14:03;100034.06;;;18.76;40.72
32875;BME280;40468;42.128;24.750;2022-10-31T05:15:35;100034.75;;;18.78;40.61
32875;BME280;40468;42.128;24.750;2022-10-31T05:17:07;100033.22;;;18.75;40.88
32875;BME280;40468;42.128;24.750;2022-10-31T05:18:39;100032.47;;;18.73;40.92
32875;BME280;40468;42.128;24.750;2022-10-31T05:20:11;100036.78;;;18.74;40.97
32875;BME280;40468;42.128;24.750;2022-10-31T05:21:42;100043.88;;;18.74;40.94
32875;BME280;40468;42.128;24.750;2022-10-31T05:23:15;100037.84;;;18.72;40.78
32875;BME280;40468;42.128;24.750;2022-10-31T05:24:47;100048.09;;;18.76;40.80
32875;BME280;40468;42.128;24.750;2022-10-31T05:26:19;100046.50;;;18.74;40.86
32875;BME280;40468;42.128;24.750;2022-10-31T05:27:51;100042.81;;;18.76;40.83
32875;BME280;40468;42.128;24.750;2022-10-31T05:29:23;100055.03;;;18.77;41.06
32875;BME280;40468;42.128;24.750;2022-10-31T05:30:55;100050.72;;;18.76;40.79
32875;BME280;40468;42.128;24.750;2022-10-31T05:32:27;100053.97;;;18.80;40.95
32875;BME280;40468;42.128;24.750;2022-10-31T05:34:00;100056.50;;;18.81;41.04
32875;BME280;40468;42.128;24.750;2022-10-31T05:35:32;100054.69;;;18.82;41.09
32875;BME280;40468;42.128;24.750;2022-10-31T05:37:04;100049.75;;;18.77;41.16
32875;BME280;40468;42.128;24.750;2022-10-31T05:38:37;100046.88;;;18.80;41.03
32875;BME280;40468;42.128;24.750;2022-10-31T05:40:10;100054.56;;;18.83;41.01
32875;BME280;40468;42.128;24.750;2022-10-31T05:41:41;100062.38;;;18.85;41.00
32875;BME280;40468;42.128;24.750;2022-10-31T05:43:13;100069.09;;;18.89;40.84
32875;BME280;40468;42.128;24.750;2022-10-31T05:44:44;100066.22;;;18.92;41.06
32875;BME280;40468;42.128;24.750;2022-10-31T05:46:15;100068.03;;;18.92;40.94
32875;BME280;40468;42.128;24.750;2022-10-31T05:47:50;100071.41;;;18.94;40.92
32875;BME280;40468;42.128;24.750;2022-10-31T05:49:22;100069.47;;;18.96;41.07
32875;BME280;40468;42.128;24.750;2022-10-31T05:50:54;100072.84;;;18.98;41.15
32875;BME280;40468;42.128;24.750;2022-10-31T05:52:26;100062.66;;;18.93;41.09
32875;BME280;40468;42.128;24.750;2022-10-31T05:53:59;100075.09;;;18.91;41.19
32875;BME280;40468;42.128;24.750;2022-10-31T05:55:31;100079.19;;;18.95;41.22
32875;BME280;40468;42.128;24.750;2022-10-31T05:57:03;100082.66;;;18.96;41.25
32875;BME280;40468;42.128;24.750;2022-10-31T05:58:34;100075.84;;;18.93;41.35
32875;BME280;40468;42.128;24.750;2022-10-31T06:00:08;100075.63;;;18.96;41.38
32875;BME280;40468;42.128;24.750;2022-10-31T06:01:40;100083.41;;;18.98;41.30
32875;BME280;40468;42.128;24.750;2022-10-31T06:03:11;100082.09;;;19.03;41.17
32875;BME280;40468;42.128;24.750;2022-10-31T06:04:42;100081.03;;;19.06;41.16
32875;BME280;40468;42.128;24.750;2022-10-31T06:06:14;100091.22;;;19.10;41.27
32875;BME280;40468;42.128;24.750;2022-10-31T06:07:46;100092.78;;;19.13;41.25
32875;BME280;40468;42.128;24.750;2022-10-31T06:09:19;100096.25;;;19.14;41.31
32875;BME280;40468;42.128;24.750;2022-10-31T06:10:51;100097.72;;;19.18;41.13
32875;BME280;40468;42.128;24.750;2022-10-31T06:12:24;100093.78;;;19.23;40.95
32875;BME280;40468;42.128;24.750;2022-10-31T06:13:55;100098.47;;;19.31;40.86
32875;BME280;40468;42.128;24.750;2022-10-31T06:15:27;100097.28;;;19.35;40.91
32875;BME280;40468;42.128;24.750;2022-10-31T06:16:59;100097.88;;;19.39;40.79
32875;BME280;40468;42.128;24.750;2022-10-31T06:18:31;100098.38;;;19.44;40.80
32875;BME280;40468;42.128;24.750;2022-10-31T06:20:04;100100.63;;;19.48;40.75
32875;BME280;40468;42.128;24.750;2022-10-31T06:21:36;100104.13;;;19.49;40.78
32875;BME280;40468;42.128;24.750;2022-10-31T06:23:06;100101.97;;;19.54;40.77
32875;BME280;40468;42.128;24.750;2022-10-31T06:24:40;100100.06;;;19.56;40.70
32875;BME280;40468;42.128;24.750;2022-10-31T06:26:12;100099.31;;;19.54;40.71
32875;BME280;40468;42.128;24.750;2022-10-31T06:27:44;100100.78;;;19.58;40.71
32875;BME280;40468;42.128;24.750;2022-10-31T06:29:15;100102.94;;;19.64;40.62
32875;BME280;40468;42.128;24.750;2022-10-31T06:30:46;100109.47;;;19.71;40.37
32875;BME280;40468;42.128;24.750;2022-10-31T06:32:18;100108.97;;;19.89;40.49
32875;BME280;40468;42.128;24.750;2022-10-31T06:33:50;100110.03;;;20.63;40.10
32875;BME280;40468;42.128;24.750;2022-10-31T06:35:22;100106.44;;;21.79;38.23
32875;BME280;40468;42.128;24.750;2022-10-31T06:36:54;100106.53;;;22.97;36.74
32875;BME280;40468;42.128;24.750;2022-10-31T06:38:26;100109.78;;;24.13;35.37
32875;BME280;40468;42.128;24.750;2022-10-31T06:40:00;100109.63;;;25.13;33.33
32875;BME280;40468;42.128;24.750;2022-10-31T06:41:31;100097.56;;;25.87;32.57
32875;BME280;40468;42.128;24.750;2022-10-31T06:43:03;100105.47;;;26.72;31.74
32875;BME280;40468;42.128;24.750;2022-10-31T06:44:35;100113.63;;;27.36;30.16
32875;BME280;40468;42.128;24.750;2022-10-31T06:46:07;100111.50;;;27.79;29.60
32875;BME280;40468;42.128;24.750;2022-10-31T06:47:39;100106.34;;;28.09;28.63
32875;BME280;40468;42.128;24.750;2022-10-31T06:49:11;100102.09;;;28.54;28.58
32875;BME280;40468;42.128;24.750;2022-10-31T06:50:43;100110.06;;;29.08;27.90
32875;BME280;40468;42.128;24.750;2022-10-31T06:52:14;100106.03;;;29.42;27.12
32875;BME280;40468;42.128;24.750;2022-10-31T06:53:46;100105.22;;;29.86;26.48
32875;BME280;40468;42.128;24.750;2022-10-31T06:55:20;100096.72;;;30.19;26.18
32875;BME280;40468;42.128;24.750;2022-10-31T06:56:52;100098.06;;;30.66;25.72
32875;BME280;40468;42.128;24.750;2022-10-31T06:58:24;100107.16;;;31.14;25.03
32875;BME280;40468;42.128;24.750;2022-10-31T06:59:56;100104.69;;;31.41;24.65
32875;BME280;40468;42.128;24.750;2022-10-31T07:01:28;100106.94;;;31.72;24.21
32875;BME280;40468;42.128;24.750;2022-10-31T07:03:00;100109.97;;;31.97;23.93
32875;BME280;40468;42.128;24.750;2022-10-31T07:04:32;100111.34;;;32.34;23.46
32875;BME280;40468;42.128;24.750;2022-10-31T07:06:04;100101.44;;;32.68;23.08
32875;BME280;40468;42.128;24.750;2022-10-31T07:07:36;100109.97;;;32.85;22.65
32875;BME280;40468;42.128;24.750;2022-10-31T07:09:09;100101.25;;;32.96;22.69
32875;BME280;40468;42.128;24.750;2022-10-31T07:10:42;100103.13;;;33.16;22.08
32875;BME280;40468;42.128;24.750;2022-10-31T07:12:21;100103.34;;;33.01;21.95
32875;BME280;40468;42.128;24.750;2022-10-31T07:13:53;100101.50;;;33.08;22.17
32875;BME280;40468;42.128;24.750;2022-10-31T07:15:24;100108.53;;;33.22;21.73
32875;BME280;40468;42.128;24.750;2022-10-31T07:16:56;100100.25;;;33.11;21.95
32875;BME280;40468;42.128;24.750;2022-10-31T07:18:28;100104.19;;;33.08;21.73
32875;BME280;40468;42.128;24.750;2022-10-31T07:20:00;100103.78;;;33.04;21.82
32875;BME280;40468;42.128;24.750;2022-10-31T07:21:32;100099.41;;;32.90;21.92
32875;BME280;40468;42.128;24.750;2022-10-31T07:23:04;100102.53;;;32.80;21.65
32875;BME280;40468;42.128;24.750;2022-10-31T07:24:36;100101.88;;;32.85;21.75
32875;BME280;40468;42.128;24.750;2022-10-31T07:26:10;100101.25;;;32.96;21.69
32875;BME280;40468;42.128;24.750;2022-10-31T07:27:42;100093.38;;;33.21;21.46
32875;BME280;40468;42.128;24.750;2022-10-31T07:29:14;100101.66;;;33.53;21.06
32875;BME280;40468;42.128;24.750;2022-10-31T07:30:49;100097.00;;;33.73;21.18
32875;BME280;40468;42.128;24.750;2022-10-31T07:32:22;100106.06;;;33.92;20.70
32875;BME280;40468;42.128;24.750;2022-10-31T07:33:54;100104.41;;;34.05;20.88
32875;BME280;40468;42.128;24.750;2022-10-31T07:35:27;100110.69;;;34.30;20.50
32875;BME280;40468;42.128;24.750;2022-10-31T07:36:58;100102.22;;;34.58;20.12
32875;BME280;40468;42.128;24.750;2022-10-31T07:38:30;100104.09;;;34.83;20.06
32875;BME280;40468;42.128;24.750;2022-10-31T07:40:02;100106.63;;;34.78;19.94
32875;BME280;40468;42.128;24.750;2022-10-31T07:41:36;100104.41;;;33.91;20.16
32875;BME280;40468;42.128;24.750;2022-10-31T07:43:08;100100.84;;;32.93;20.98
32875;BME280;40468;42.128;24.750;2022-10-31T07:44:40;100110.25;;;32.15;21.91
32875;BME280;40468;42.128;24.750;2022-10-31T07:46:12;100107.19;;;31.42;22.29
32875;BME280;40468;42.128;24.750;2022-10-31T07:47:45;100103.59;;;30.64;23.34
32875;BME280;40468;42.128;24.750;2022-10-31T07:49:17;100108.19;;;29.91;24.20
32875;BME280;40468;42.128;24.750;2022-10-31T07:50:49;100107.50;;;29.30;24.77
32875;BME280;40468;42.128;24.750;2022-10-31T07:52:20;100108.56;;;28.83;25.44
32875;BME280;40468;42.128;24.750;2022-10-31T07:53:51;100109.44;;;28.29;25.87
32875;BME280;40468;42.128;24.750;2022-10-31T07:55:23;100105.69;;;28.07;26.35
32875;BME280;40468;42.128;24.750;2022-10-31T07:56:56;100113.25;;;28.34;26.81
32875;BME280;40468;42.128;24.750;2022-10-31T07:58:28;100101.47;;;28.90;25.96
32875;BME280;40468;42.128;24.750;2022-10-31T08:00:00;100102.16;;;29.59;25.85
32875;BME280;40468;42.128;24.750;2022-10-31T08:01:32;100105.34;;;30.50;24.61
32875;BME280;40468;42.128;24.750;2022-10-31T08:03:05;100102.72;;;31.28;24.33
32875;BME280;40468;42.128;24.750;2022-10-31T08:04:37;100104.03;;;31.73;23.32
32875;BME280;40468;42.128;24.750;2022-10-31T08:06:09;100106.47;;;32.03;22.72
32875;BME280;40468;42.128;24.750;2022-10-31T08:07:41;100099.03;;;32.12;22.59
32875;BME280;40468;42.128;24.750;2022-10-31T08:09:13;100106.72;;;32.15;22.81